Time;durP1;ratioP1;P1;durP2;ratioP2;P2;SDS_P1;SDS_P2;PMS_P1;PMS_P2;Temp;Humidity;BMP_temperature;BMP_pressure;BME280_temperature;BME280_humidity;BME280_pressure;Samples;Min_cycle;Max_cycle;Signal;HPM_P1;HPM_P2
2021/10/24 00:01:04;;;;;;;23.43;11.53;;;;;;;4.30;100.00;100620.56;1705391;84;21062;-70
2021/10/24 00:03:31;;;;;;;22.80;11.50;;;;;;;4.27;100.00;100621.66;1705268;84;21535;-70
2021/10/24 00:05:59;;;;;;;24.23;10.23;;;;;;;4.24;100.00;100625.06;1705195;84;21106;-69
2021/10/24 00:08:26;;;;;;;21.27;9.70;;;;;;;4.20;100.00;100628.45;1706776;84;21047;-71
2021/10/24 00:10:53;;;;;;;20.80;10.10;;;;;;;4.18;100.00;100624.55;1705243;84;21106;-70
2021/10/24 00:13:21;;;;;;;22.60;10.67;;;;;;;4.18;100.00;100617.86;1705198;84;21039;-70
2021/10/24 00:15:48;;;;;;;18.20;9.17;;;;;;;4.19;100.00;100620.05;1705184;83;21075;-70
2021/10/24 00:18:16;;;;;;;20.77;10.00;;;;;;;4.21;100.00;100612.74;1667361;86;21074;-70
2021/10/24 00:20:43;;;;;;;21.97;10.33;;;;;;;4.19;100.00;100618.20;1715295;84;20995;-70
2021/10/24 00:23:10;;;;;;;20.93;9.87;;;;;;;4.16;100.00;100614.45;1705327;84;21098;-69
2021/10/24 00:25:37;;;;;;;20.67;9.50;;;;;;;4.11;100.00;100619.30;1705181;84;21090;-70
2021/10/24 00:28:04;;;;;;;23.27;11.07;;;;;;;4.05;100.00;100611.70;1666482;86;21113;-70
2021/10/24 00:30:31;;;;;;;21.50;9.87;;;;;;;4.01;100.00;100620.94;1715577;84;21551;-70
2021/10/24 00:33:04;;;;;;;22.10;10.37;;;;;;;3.95;100.00;100619.58;1705616;84;21071;-70
2021/10/24 00:35:32;;;;;;;25.65;10.20;;;;;;;3.91;100.00;100620.79;1686801;84;21043;-70
2021/10/24 00:37:59;;;;;;;23.73;11.17;;;;;;;3.87;100.00;100619.29;1710017;84;21079;-70
2021/10/24 00:40:26;;;;;;;22.90;11.23;;;;;;;3.82;100.00;100619.27;1705367;84;21047;-70
2021/10/24 00:42:53;;;;;;;20.77;10.40;;;;;;;3.77;100.00;100623.14;1705548;84;21073;-70
2021/10/24 00:45:23;;;;;;;22.30;10.17;;;;;;;3.72;100.00;100623.96;1705391;84;21082;-70
2021/10/24 00:47:52;;;;;;;22.43;10.63;;;;;;;3.68;100.00;100628.30;1705441;84;21582;-69
2021/10/24 00:50:20;;;;;;;21.30;10.37;;;;;;;3.60;100.00;100625.70;1683993;84;21478;-70
2021/10/24 00:52:47;;;;;;;21.13;9.63;;;;;;;3.55;100.00;100623.84;1703686;83;21526;-70
2021/10/24 00:55:15;;;;;;;19.23;9.20;;;;;;;3.49;100.00;100627.44;1672001;85;21081;-70
2021/10/24 00:57:42;;;;;;;23.40;10.13;;;;;;;3.45;100.00;100631.31;1678482;85;21061;-70
2021/10/24 01:00:11;;;;;;;21.17;9.63;;;;;;;3.41;100.00;100635.53;1678024;85;21084;-70
2021/10/24 01:02:39;;;;;;;19.70;9.47;;;;;;;3.37;100.00;100635.88;1677856;85;21056;-70
2021/10/24 01:05:07;;;;;;;22.73;10.03;;;;;;;3.32;100.00;100636.20;1678105;85;21064;-69
2021/10/24 01:07:38;;;;;;;24.23;10.43;;;;;;;3.29;100.00;100640.91;1678143;85;21557;-71
2021/10/24 01:10:07;;;;;;;22.33;10.23;;;;;;;3.24;100.00;100643.93;1677979;85;21045;-69
2021/10/24 01:12:36;;;;;;;27.90;10.33;;;;;;;3.19;100.00;100640.23;1657035;85;21045;-69
2021/10/24 01:15:06;;;;;;;22.90;10.47;;;;;;;3.16;100.00;100637.77;1680616;84;21111;-71
2021/10/24 01:17:33;;;;;;;23.13;10.30;;;;;;;3.14;100.00;100637.52;1683486;85;21573;-69
2021/10/24 01:20:01;;;;;;;22.33;9.33;;;;;;;3.11;100.00;100634.56;1683280;85;21080;-70
2021/10/24 01:22:29;;;;;;;19.77;9.30;;;;;;;3.09;100.00;100631.16;1683544;85;21048;-70
2021/10/24 01:24:57;;;;;;;22.70;10.27;;;;;;;3.09;100.00;100630.31;1683287;85;21131;-70
2021/10/24 01:27:24;;;;;;;21.30;9.73;;;;;;;3.10;100.00;100632.00;1683473;85;21032;-70
2021/10/24 01:29:51;;;;;;;20.43;9.30;;;;;;;3.08;100.00;100638.81;1662758;85;21115;-70
2021/10/24 01:32:19;;;;;;;21.63;9.43;;;;;;;3.07;100.00;100637.09;1662808;85;21036;-69
2021/10/24 01:34:47;;;;;;;24.13;9.50;;;;;;;3.06;100.00;100634.53;1683105;85;21072;-70
2021/10/24 01:37:15;;;;;;;24.13;9.67;;;;;;;3.02;100.00;100634.73;1662756;85;21044;-69
2021/10/24 01:39:42;;;;;;;22.73;9.73;;;;;;;3.00;100.00;100638.00;1683403;85;21517;-70
2021/10/24 01:42:09;;;;;;;23.10;8.77;;;;;;;2.98;100.00;100641.27;1683398;85;21040;-70
2021/10/24 01:44:37;;;;;;;20.37;8.60;;;;;;;2.96;100.00;100641.86;1662676;85;21092;-69
2021/10/24 01:47:04;;;;;;;21.00;8.67;;;;;;;2.97;100.00;100646.71;1683555;85;21025;-69
2021/10/24 01:49:34;;;;;;;19.73;8.40;;;;;;;2.97;100.00;100650.72;1683168;85;21053;-69
2021/10/24 01:52:01;;;;;;;17.53;8.00;;;;;;;2.96;100.00;100649.88;1683536;85;21530;-70
2021/10/24 01:54:29;;;;;;;19.40;8.03;;;;;;;2.96;100.00;100650.36;1646455;85;21538;-70
2021/10/24 01:56:57;;;;;;;15.30;7.97;;;;;;;2.95;100.00;100656.16;1652670;86;21084;-69
2021/10/24 01:59:24;;;;;;;16.53;7.57;;;;;;;2.94;100.00;100652.27;1678715;85;21524;-70
2021/10/24 02:02:05;;;;;;;21.20;8.17;;;;;;;2.93;100.00;100649.23;1631867;87;21515;-70
2021/10/24 02:04:39;;;;;;;20.40;8.97;;;;;;;2.91;100.00;100652.01;1643739;87;21058;-70
2021/10/24 02:07:10;;;;;;;15.97;7.27;;;;;;;2.89;100.00;100645.08;1585897;90;21141;-69
2021/10/24 02:09:38;;;;;;;18.80;8.00;;;;;;;2.87;100.00;100655.86;1596648;90;21129;-70
2021/10/24 02:12:06;;;;;;;14.73;6.90;;;;;;;2.86;100.00;100656.81;1596979;90;21057;-70
2021/10/24 02:14:33;;;;;;;19.47;7.63;;;;;;;2.86;100.00;100650.13;1589575;90;21097;-70
2021/10/24 02:17:00;;;;;;;16.40;7.50;;;;;;;2.85;100.00;100649.75;1562814;92;21067;-70
2021/10/24 02:19:27;;;;;;;19.00;8.13;;;;;;;2.84;100.00;100653.40;1563591;92;21103;-70
2021/10/24 02:21:55;;;;;;;18.40;7.50;;;;;;;2.80;100.00;100653.25;1565051;90;22310;-70
2021/10/24 02:24:22;;;;;;;18.17;6.87;;;;;;;2.78;100.00;100649.80;1583356;90;21162;-69
2021/10/24 02:26:50;;;;;;;15.03;7.10;;;;;;;2.76;100.00;100655.73;1570668;90;21570;-70
2021/10/24 02:29:17;;;;;;;17.30;8.37;;;;;;;2.75;100.00;100666.06;1563767;91;21543;-70
2021/10/24 02:31:45;;;;;;;19.03;8.63;;;;;;;2.71;100.00;100666.75;1578909;90;21675;-71
2021/10/24 02:34:20;;;;;;;21.03;9.30;;;;;;;2.70;100.00;100670.86;1583663;90;21611;-68
2021/10/24 02:36:52;;;;;;;17.47;8.60;;;;;;;2.68;100.00;100674.97;1564834;91;21066;-70
2021/10/24 02:39:19;;;;;;;23.43;8.93;;;;;;;2.65;100.00;100668.48;1555974;92;21099;-70
2021/10/24 02:41:47;;;;;;;19.13;9.70;;;;;;;2.63;100.00;100666.41;1555281;92;21043;-70
2021/10/24 02:44:14;;;;;;;20.13;11.37;;;;;;;2.60;100.00;100659.48;1579231;88;21611;-70
2021/10/24 02:46:51;;;;;;;29.93;15.90;;;;;;;2.60;100.00;100670.61;1620373;88;21051;-70
2021/10/24 02:49:19;;;;;;;23.17;13.07;;;;;;;2.58;100.00;100669.38;1620665;88;21023;-70
2021/10/24 02:51:52;;;;;;;26.33;12.83;;;;;;;2.57;100.00;100674.36;1598842;89;21125;-70
2021/10/24 02:54:20;;;;;;;22.90;12.33;;;;;;;2.56;100.00;100677.13;1598559;90;21085;-70
2021/10/24 02:56:47;;;;;;;21.57;9.60;;;;;;;2.56;100.00;100677.98;1638520;86;21023;-70
2021/10/24 02:59:17;;;;;;;18.70;9.37;;;;;;;2.57;100.00;100673.52;1650359;87;21015;-69
2021/10/24 03:01:46;;;;;;;20.00;9.17;;;;;;;2.58;100.00;100675.20;1661706;86;21561;-69
2021/10/24 03:04:13;;;;;;;19.63;9.20;;;;;;;2.58;100.00;100669.87;1674617;86;21001;-70
2021/10/24 03:06:42;;;;;;;19.10;9.00;;;;;;;2.56;100.00;100665.96;1632486;88;21511;-70
2021/10/24 03:09:09;;;;;;;19.90;9.40;;;;;;;2.55;100.00;100666.06;1664823;86;21570;-70
2021/10/24 03:11:36;;;;;;;18.03;8.00;;;;;;;2.55;100.00;100668.73;1664505;86;21531;-70
2021/10/24 03:14:03;;;;;;;18.17;8.37;;;;;;;2.55;100.00;100664.73;1664611;86;21543;-70
2021/10/24 03:16:32;;;;;;;20.37;8.33;;;;;;;2.54;100.00;100665.22;1673800;85;21622;-70
2021/10/24 03:18:59;;;;;;;19.40;9.20;;;;;;;2.54;100.00;100680.39;1695590;84;21028;-71
2021/10/24 03:21:26;;;;;;;21.87;9.73;;;;;;;2.54;100.00;100681.73;1672789;85;21139;-70
2021/10/24 03:23:54;;;;;;;22.63;9.73;;;;;;;2.54;100.00;100684.39;1672806;85;21118;-69
2021/10/24 03:26:21;;;;;;;34.50;14.87;;;;;;;2.54;100.00;100684.39;1695656;82;21063;-70
2021/10/24 03:28:48;;;;;;;41.60;17.10;;;;;;;2.53;100.00;100686.67;1728027;83;21617;-70
2021/10/24 03:31:17;;;;;;;32.73;15.27;;;;;;;2.49;100.00;100687.36;1729955;83;21038;-71
2021/10/24 03:33:44;;;;;;;29.40;14.90;;;;;;;2.47;100.00;100691.47;1728423;83;20995;-70
2021/10/24 03:36:13;;;;;;;28.53;14.57;;;;;;;2.45;100.00;100694.72;1728306;83;21042;-69
2021/10/24 03:38:40;;;;;;;24.70;12.83;;;;;;;2.42;100.00;100692.25;1728274;83;21042;-70
2021/10/24 03:41:08;;;;;;;26.13;13.93;;;;;;;2.40;100.00;100694.17;1729539;83;21569;-70
2021/10/24 03:43:36;;;;;;;25.43;12.50;;;;;;;2.39;100.00;100700.94;1727910;83;21019;-70
2021/10/24 03:46:04;;;;;;;25.10;12.53;;;;;;;2.37;100.00;100697.52;1728400;83;21018;-69
2021/10/24 03:48:32;;;;;;;26.07;12.93;;;;;;;2.36;100.00;100703.84;1727999;83;21058;-70
2021/10/24 03:50:59;;;;;;;27.90;13.70;;;;;;;2.33;100.00;100705.37;1683549;83;21034;-69
2021/10/24 03:53:26;;;;;;;26.57;13.83;;;;;;;2.28;100.00;100712.33;1674591;85;21070;-70
2021/10/24 03:55:53;;;;;;;30.63;14.77;;;;;;;2.22;100.00;100710.08;1660448;86;21071;-69
2021/10/24 03:58:22;;;;;;;26.63;14.83;;;;;;;2.11;100.00;100715.25;1665945;86;21083;-69
2021/10/24 04:00:50;;;;;;;29.23;16.13;;;;;;;1.99;100.00;100717.77;1665560;86;21579;-70
2021/10/24 04:03:17;;;;;;;37.83;20.97;;;;;;;1.89;100.00;100726.86;1647291;87;21550;-70
2021/10/24 04:05:49;;;;;;;36.83;21.73;;;;;;;1.80;100.00;100726.09;1690763;85;21066;-70
2021/10/24 04:08:18;;;;;;;33.83;18.60;;;;;;;1.73;100.00;100727.92;1658390;86;21527;-70
2021/10/24 04:10:45;;;;;;;35.43;19.47;;;;;;;1.64;100.00;100730.69;1648830;86;21074;-70
2021/10/24 04:13:12;;;;;;;33.90;17.63;;;;;;;1.57;100.00;100726.21;1647707;87;21591;-70
2021/10/24 04:15:40;;;;;;;35.93;18.07;;;;;;;1.51;100.00;100729.28;1696051;84;21070;-70
2021/10/24 04:18:09;;;;;;;32.53;17.03;;;;;;;1.47;100.00;100741.06;1697714;84;21087;-70
2021/10/24 04:20:38;;;;;;;34.00;16.47;;;;;;;1.43;100.00;100736.88;1701627;84;21022;-70
2021/10/24 04:23:05;;;;;;;32.43;17.40;;;;;;;1.36;100.00;100732.41;1706340;84;21117;-71
2021/10/24 04:25:32;;;;;;;36.47;18.57;;;;;;;1.30;100.00;100730.14;1702923;84;21098;-70
2021/10/24 04:27:59;;;;;;;33.00;19.00;;;;;;;1.26;100.00;100737.95;1706361;84;21480;-70
2021/10/24 04:30:26;;;;;;;36.23;19.13;;;;;;;1.21;100.00;100734.70;1702708;84;21007;-70
2021/10/24 04:32:55;;;;;;;35.53;19.03;;;;;;;1.13;100.00;100734.70;1706056;84;21567;-70
2021/10/24 04:35:23;;;;;;;34.80;20.13;;;;;;;1.11;100.00;100731.24;1683023;84;21055;-70
2021/10/24 04:37:50;;;;;;;39.97;20.60;;;;;;;1.11;100.00;100735.72;1702517;84;21070;-68
2021/10/24 04:40:17;;;;;;;37.13;20.13;;;;;;;1.11;100.00;100737.91;1702758;84;21500;-70
2021/10/24 04:42:47;;;;;;;37.73;19.97;;;;;;;1.14;100.00;100747.53;1702853;84;21066;-70
2021/10/24 04:45:13;;;;;;;38.30;18.90;;;;;;;1.17;100.00;100742.03;1702754;84;21071;-70
2021/10/24 04:47:42;;;;;;;34.33;19.60;;;;;;;1.21;100.00;100749.36;1702241;84;21090;-69
2021/10/24 04:50:10;;;;;;;33.13;18.67;;;;;;;1.26;100.00;100752.12;1692116;84;21038;-70
2021/10/24 04:52:37;;;;;;;33.37;18.00;;;;;;;1.36;100.00;100752.88;1682341;85;21046;-70
2021/10/24 04:55:08;;;;;;;32.37;17.70;;;;;;;1.47;100.00;100752.60;1693981;83;21042;-70
2021/10/24 04:57:36;;;;;;;36.10;19.07;;;;;;;1.57;100.00;100754.20;1722766;83;21026;-70
2021/10/24 05:00:10;;;;;;;33.43;17.80;;;;;;;1.71;100.00;100752.86;1722305;83;21117;-70
2021/10/24 05:02:39;;;;;;;33.57;18.70;;;;;;;1.84;100.00;100758.75;1722333;83;21058;-70
2021/10/24 05:05:09;;;;;;;36.47;18.63;;;;;;;1.99;100.00;100758.27;1722639;83;21062;-71
2021/10/24 05:07:36;;;;;;;34.10;18.37;;;;;;;2.17;100.00;100763.73;1722625;83;21535;-70
2021/10/24 05:10:04;;;;;;;34.13;17.83;;;;;;;2.37;100.00;100765.59;1722670;83;21058;-70
2021/10/24 05:12:31;;;;;;;35.83;16.27;;;;;;;2.53;100.00;100772.11;1723735;83;20990;-69
2021/10/24 05:14:59;;;;;;;32.70;15.67;;;;;;;2.71;100.00;100772.69;1724124;82;21054;-69
2021/10/24 05:17:27;;;;;;;27.93;14.43;;;;;;;2.87;100.00;100767.17;1738111;82;21050;-71
2021/10/24 05:19:54;;;;;;;31.17;14.93;;;;;;;3.03;100.00;100772.72;1733287;82;21063;-69
2021/10/24 05:22:21;;;;;;;34.50;15.50;;;;;;;3.19;100.00;100769.02;1721317;82;21019;-69
2021/10/24 05:24:49;;;;;;;32.03;15.03;;;;;;;3.31;100.00;100776.19;1720407;83;21562;-70
2021/10/24 05:27:16;;;;;;;29.57;14.57;;;;;;;3.45;100.00;100785.05;1721722;83;21050;-70
2021/10/24 05:29:43;;;;;;;30.47;14.37;;;;;;;3.57;100.00;100786.86;1720596;83;21023;-69
2021/10/24 05:32:11;;;;;;;35.37;16.07;;;;;;;3.69;100.00;100789.16;1720455;83;21062;-70
2021/10/24 05:34:39;;;;;;;27.63;15.33;;;;;;;3.77;100.00;100795.69;1720669;83;21074;-69
2021/10/24 05:37:08;;;;;;;32.73;16.43;;;;;;;3.83;100.00;100789.03;1720806;83;21066;-70
2021/10/24 05:39:35;;;;;;;31.00;15.53;;;;;;;3.89;100.00;100789.08;1720668;83;21039;-70
2021/10/24 05:42:04;;;;;;;32.90;16.93;;;;;;;3.87;100.00;100783.83;1720898;83;21035;-70
2021/10/24 05:44:31;;;;;;;32.97;17.07;;;;;;;3.88;100.00;100794.04;1720724;83;21034;-70
2021/10/24 05:46:58;;;;;;;33.97;16.93;;;;;;;3.88;100.00;100794.92;1720364;83;21062;-70
2021/10/24 05:49:26;;;;;;;37.10;19.03;;;;;;;3.88;100.00;100788.69;1720121;83;21070;-69
2021/10/24 05:51:53;;;;;;;37.37;19.63;;;;;;;3.89;100.00;100789.08;1702752;84;21531;-70
2021/10/24 05:54:22;;;;;;;39.73;21.33;;;;;;;3.85;100.00;100785.77;1703546;84;21099;-69
2021/10/24 05:56:50;;;;;;;40.87;21.47;;;;;;;3.81;100.00;100790.97;1697645;84;21544;-69
2021/10/24 05:59:19;;;;;;;46.90;23.13;;;;;;;3.77;100.00;100790.80;1695837;84;21067;-70
2021/10/24 06:01:48;;;;;;;45.57;23.73;;;;;;;3.66;100.00;100784.02;1695880;84;21817;-69
2021/10/24 06:04:25;;;;;;;42.77;23.67;;;;;;;3.54;100.00;100797.30;1634305;87;21591;-71
2021/10/24 06:06:58;;;;;;;42.60;21.77;;;;;;;3.45;100.00;100791.73;1634540;88;21114;-69
2021/10/24 06:09:44;;;;;;;48.43;25.00;;;;;;;3.39;100.00;100790.34;1634461;88;21066;-69
2021/10/24 06:14:43;;;;;;;43.10;22.67;;;;;;;3.48;100.00;100796.38;1577259;91;21105;-69
2021/10/24 06:17:12;;;;;;;43.50;22.33;;;;;;;3.61;100.00;100797.70;1573807;90;21629;-69
2021/10/24 06:19:41;;;;;;;41.87;21.60;;;;;;;3.71;100.00;100793.42;1573712;91;21117;-70
2021/10/24 06:22:10;;;;;;;46.00;21.80;;;;;;;3.79;100.00;100796.42;1570441;91;21044;-71
2021/10/24 06:24:37;;;;;;;38.83;20.73;;;;;;;3.93;100.00;100797.25;1570756;91;21132;-71
2021/10/24 06:27:04;;;;;;;33.67;17.50;;;;;;;4.10;100.00;100792.03;1571165;91;21090;-70
2021/10/24 06:29:34;;;;;;;32.37;16.83;;;;;;;4.31;100.00;100793.14;1552750;91;21097;-71
2021/10/24 06:32:02;;;;;;;33.90;16.67;;;;;;;4.58;100.00;100791.23;1573362;91;21055;-70
2021/10/24 06:34:34;;;;;;;32.13;16.20;;;;;;;4.86;100.00;100796.22;1552460;91;21083;-71
2021/10/24 06:37:03;;;;;;;29.17;14.20;;;;;;;5.17;100.00;100806.44;1568799;91;21602;-71
2021/10/24 06:39:32;;;;;;;22.93;12.10;;;;;;;5.39;100.00;100802.97;1570938;91;21083;-71
2021/10/24 06:42:00;;;;;;;28.43;13.47;;;;;;;5.59;100.00;100806.27;1565272;91;21614;-72
2021/10/24 06:44:31;;;;;;;28.10;12.77;;;;;;;5.86;100.00;100807.75;1563695;91;21075;-69
2021/10/24 06:47:03;;;;;;;26.33;12.30;;;;;;;6.25;100.00;100820.34;1572036;91;21255;-69
2021/10/24 06:49:50;;;;;;;26.40;12.67;;;;;;;6.69;100.00;100825.75;1535211;93;21526;-72
2021/10/24 06:52:28;;;;;;;24.30;10.33;;;;;;;7.17;100.00;100826.19;1537488;93;21112;-71
2021/10/24 06:54:57;;;;;;;24.20;12.13;;;;;;;7.57;100.00;100823.26;1538833;93;21135;-72
2021/10/24 06:57:48;;;;;;;33.53;18.47;;;;;;;7.77;100.00;100812.98;1515154;95;21605;-71
2021/10/24 07:00:19;;;;;;;41.97;20.47;;;;;;;7.92;100.00;100810.77;1498253;96;21594;-71
2021/10/24 07:02:50;;;;;;;37.78;20.68;;;;;;;7.97;100.00;100801.79;1496580;96;21111;-71
2021/10/24 07:05:37;;;;;;;41.87;22.87;;;;;;;8.04;100.00;100798.53;1465194;98;21161;-70
2021/10/24 07:08:07;;;;;;;41.53;22.63;;;;;;;8.23;100.00;100800.45;1465129;98;21087;-70
2021/10/24 07:10:34;;;;;;;43.80;23.33;;;;;;;8.41;100.00;100796.59;1463906;98;21126;-71
2021/10/24 07:13:02;;;;;;;36.63;19.63;;;;;;;8.53;100.00;100792.82;1445282;99;21577;-73
2021/10/24 07:15:29;;;;;;;37.40;21.60;;;;;;;8.63;100.00;100795.04;1445572;99;21080;-70
2021/10/24 07:17:56;;;;;;;30.57;17.07;;;;;;;8.65;100.00;100795.75;1453445;99;21200;-71
2021/10/24 07:20:23;;;;;;;41.63;19.67;;;;;;;8.72;100.00;100794.19;1453618;99;21145;-72
2021/10/24 07:22:52;;;;;;;33.87;17.77;;;;;;;8.77;100.00;100787.55;1465991;98;21160;-73
2021/10/24 07:25:25;;;;;;;29.67;15.87;;;;;;;8.82;100.00;100791.52;1453618;98;21128;-70
2021/10/24 07:27:52;;;;;;;29.40;14.77;;;;;;;8.85;100.00;100775.06;1455162;96;21592;-71
2021/10/24 07:30:20;;;;;;;30.00;15.77;;;;;;;8.90;100.00;100780.01;1548068;92;21616;-70
2021/10/24 07:32:52;;;;;;;22.22;11.18;;;;;;;8.90;100.00;100774.62;1602803;89;21111;-70
2021/10/24 07:35:37;;;;;;;97.03;69.97;;;;;;;8.93;100.00;100777.88;1602941;88;21103;-71
2021/10/24 07:38:05;;;;;;;47.13;34.33;;;;;;;8.94;100.00;100780.07;1649826;86;21123;-70
2021/10/24 07:40:34;;;;;;;30.50;15.70;;;;;;;8.98;100.00;100778.81;1659007;86;21035;-70
2021/10/24 07:43:03;;;;;;;21.53;10.90;;;;;;;9.09;100.00;100780.00;1656309;87;21127;-71
2021/10/24 07:45:30;;;;;;;18.23;8.90;;;;;;;9.26;100.00;100770.81;1656455;87;21611;-70
2021/10/24 07:47:57;;;;;;;18.77;8.17;;;;;;;9.44;100.00;100766.39;1634932;87;21587;-70
2021/10/24 07:50:28;;;;;;;19.50;8.30;;;;;;;9.72;100.00;100762.87;1659443;86;21112;-71
2021/10/24 07:52:55;;;;;;;15.70;7.47;;;;;;;10.15;100.00;100766.83;1664335;86;21053;-70
2021/10/24 07:55:24;;;;;;;19.97;7.40;;;;;;;10.54;100.00;100763.91;1649243;87;21109;-70
2021/10/24 07:57:51;;;;;;;20.88;8.50;;;;;;;10.86;100.00;100756.61;1688670;85;21046;-70
2021/10/24 08:00:19;;;;;;;22.62;9.08;;;;;;;11.26;100.00;100749.84;1688671;85;21183;-70
2021/10/24 08:02:48;;;;;;;16.50;7.80;;;;;;;11.50;100.00;100745.06;1688766;85;21601;-69
2021/10/24 08:05:16;;;;;;;20.48;8.60;;;;;;;11.57;100.00;100744.77;1688821;85;21033;-70
2021/10/24 08:07:43;;;;;;;21.82;7.62;;;;;;;11.65;100.00;100743.98;1681238;85;21131;-70
2021/10/24 08:10:12;;;;;;;16.23;6.97;;;;;;;11.77;100.00;100747.25;1678971;85;21141;-70
2021/10/24 08:12:40;;;;;;;14.78;7.00;;;;;;;11.89;100.00;100744.59;1679308;85;21007;-69
2021/10/24 08:15:09;;;;;;;14.98;6.67;;;;;;;11.98;100.00;100744.67;1679130;85;21094;-70
2021/10/24 08:17:38;;;;;;;17.27;8.05;;;;;;;12.14;100.00;100744.73;1703700;84;21078;-71
2021/10/24 08:20:23;;;;;;;18.92;7.92;;;;;;;12.34;100.00;100748.00;1709876;84;21042;-71
2021/10/24 08:22:50;;;;;;;14.43;6.55;;;;;;;12.65;100.00;100744.69;1686446;84;21023;-70
2021/10/24 08:25:17;;;;;;;22.95;11.73;;;;;;;12.85;100.00;100739.78;1709611;84;21034;-70
2021/10/24 08:27:46;;;;;;;18.27;7.08;;;;;;;13.01;100.00;100742.50;1709569;84;21575;-69
2021/10/24 08:30:32;;;;;;;22.13;8.58;;;;;;;13.02;100.00;100744.20;1709766;84;20992;-70
2021/10/24 08:33:06;;;;;;;15.00;6.50;;;;;;;13.09;100.00;100746.58;1616618;88;21071;-70
2021/10/24 08:35:35;;;;;;;18.20;7.40;;;;;;;13.29;100.00;100741.63;1595378;89;21123;-69
2021/10/24 08:38:02;;;;;;;16.95;5.83;;;;;;;13.47;100.00;100732.47;1584501;89;21133;-70
2021/10/24 08:40:29;;;;;;;12.47;6.10;;;;;;;13.47;100.00;100737.90;1616127;89;21066;-70
2021/10/24 08:43:02;;;;;;;12.37;5.25;;;;;;;13.33;100.00;100730.46;1605022;89;21035;-70
2021/10/24 08:45:28;;;;;;;9.55;4.85;;;;;;;13.06;100.00;100730.62;1613569;89;21555;-70
2021/10/24 08:47:57;;;;;;;10.45;5.10;;;;;;;12.73;100.00;100735.22;1584510;89;21117;-71
2021/10/24 08:50:24;;;;;;;10.48;5.35;;;;;;;12.43;100.00;100739.38;1608133;87;21034;-70
2021/10/24 08:52:54;;;;;;;14.55;5.80;;;;;;;12.35;100.00;100736.16;1641598;86;21038;-70
2021/10/24 08:55:21;;;;;;;18.42;6.12;;;;;;;12.51;100.00;100729.40;1604079;89;21046;-70
2021/10/24 08:57:49;;;;;;;13.62;5.87;;;;;;;12.71;100.00;100730.44;1588152;90;21202;-70
2021/10/24 09:00:17;;;;;;;9.40;4.17;;;;;;;12.80;100.00;100729.45;1588056;90;21127;-70
2021/10/24 09:03:03;;;;;;;11.22;4.87;;;;;;;12.69;100.00;100727.89;1588157;90;21062;-70
2021/10/24 09:05:40;;;;;;;8.30;4.08;;;;;;;12.59;100.00;100725.88;1588134;90;21034;-70
2021/10/24 09:08:13;;;;;;;12.28;4.83;;;;;;;12.41;100.00;100726.02;1587715;90;21135;-71
2021/10/24 09:10:57;;;;;;;14.65;6.47;;;;;;;12.19;100.00;100724.76;1558951;92;21070;-70
2021/10/24 09:13:27;;;;;;;14.85;6.30;;;;;;;11.93;100.00;100737.02;1511361;95;21131;-70
2021/10/24 09:16:06;;;;;;;14.90;6.47;;;;;;;11.71;100.00;100734.36;1511442;95;21130;-70
2021/10/24 09:18:37;;;;;;;16.40;6.37;;;;;;;11.51;100.00;100730.53;1511424;95;21776;-70
2021/10/24 09:21:23;;;;;;;15.90;6.90;;;;;;;11.26;100.00;100734.95;1511623;95;21567;-69
2021/10/24 09:23:56;;;;;;;20.35;8.83;;;;;;;11.16;100.00;100735.03;1536920;93;21706;-69
2021/10/24 09:26:29;;;;;;;20.37;8.70;;;;;;;11.03;100.00;100737.31;1528368;93;21188;-70
2021/10/24 09:29:08;;;;;;;23.75;9.98;;;;;;;10.84;100.00;100727.52;1495723;95;21116;-71
2021/10/24 09:31:45;;;;;;;23.00;9.50;;;;;;;10.73;100.00;100729.08;1519989;94;21642;-70
2021/10/24 09:34:23;;;;;;;21.97;9.48;;;;;;;10.91;100.00;100731.29;1492564;96;21129;-69
2021/10/24 09:37:00;;;;;;;23.62;9.28;;;;;;;11.49;100.00;100714.08;1465526;98;21173;-71
2021/10/24 09:39:38;;;;;;;18.98;7.83;;;;;;;12.15;100.00;100713.91;1468723;98;21162;-69
2021/10/24 09:42:22;;;;;;;14.60;6.62;;;;;;;12.64;100.00;100705.88;1446369;99;21137;-70
2021/10/24 09:45:05;;;;;;;20.10;7.05;;;;;;;12.81;100.00;100702.64;1469404;98;21604;-70
2021/10/24 09:47:36;;;;;;;21.57;8.08;;;;;;;12.83;100.00;100707.38;1469197;98;21123;-70
2021/10/24 09:50:05;;;;;;;17.05;7.30;;;;;;;12.81;100.00;100708.58;1402850;102;21120;-69
2021/10/24 09:52:34;;;;;;;15.80;7.25;;;;;;;12.77;100.00;100704.01;1439060;100;21136;-71
2021/10/24 09:55:03;;;;;;;20.90;8.58;;;;;;;12.75;100.00;100706.53;1437010;100;21174;-69
2021/10/24 09:57:31;;;;;;;20.27;9.35;;;;;;;12.72;100.00;100699.08;1439988;100;21648;-70
2021/10/24 09:59:58;;;;;;;24.90;10.65;;;;;;;12.63;100.00;100694.67;1427969;100;21126;-71
2021/10/24 10:02:25;;;;;;;20.77;9.85;;;;;;;12.53;100.00;100700.23;1439695;100;21082;-70
2021/10/24 10:04:51;;;;;;;21.42;8.70;;;;;;;12.32;100.00;100696.67;1439894;100;21173;-69
2021/10/24 10:07:21;;;;;;;14.95;7.35;;;;;;;12.19;100.00;100692.73;1440084;100;21138;-71
2021/10/24 10:09:48;;;;;;;18.15;8.03;;;;;;;12.31;100.00;100692.25;1444320;99;21133;-71
2021/10/24 10:12:19;;;;;;;15.23;6.17;;;;;;;12.43;100.00;100699.57;1449487;99;21189;-73
2021/10/24 10:14:48;;;;;;;16.90;6.53;;;;;;;12.49;100.00;100696.69;1457868;98;21610;-68
2021/10/24 10:17:22;;;;;;;15.08;7.03;;;;;;;12.51;100.00;100701.44;1457100;98;21125;-72
2021/10/24 10:19:49;;;;;;;17.15;7.25;;;;;;;12.42;100.00;100697.86;1456749;98;21132;-71
2021/10/24 10:22:29;;;;;;;15.45;6.25;;;;;;;12.40;100.00;100694.47;1468061;96;21142;-73
2021/10/24 10:25:03;;;;;;;15.18;6.60;;;;;;;12.35;100.00;100688.70;1449031;97;21618;-71
2021/10/24 10:27:41;;;;;;;18.57;8.13;;;;;;;12.28;100.00;100692.58;1442577;99;21105;-70
2021/10/24 10:30:35;;;;;;;17.98;7.22;;;;;;;12.21;100.00;100690.19;1449188;98;21061;-71
2021/10/24 10:33:22;;;;;;;16.23;6.67;;;;;;;12.10;100.00;100687.28;1478137;96;21044;-69
2021/10/24 10:35:53;;;;;;;15.08;6.78;;;;;;;11.91;100.00;100684.85;1495274;96;21576;-69
2021/10/24 10:38:38;;;;;;;15.90;6.95;;;;;;;11.77;100.00;100690.34;1515131;94;21616;-69
2021/10/24 10:41:07;;;;;;;16.00;7.20;;;;;;;11.70;100.00;100696.91;1474568;96;21076;-69
2021/10/24 10:43:34;;;;;;;19.20;9.28;;;;;;;11.67;100.00;100697.27;1495333;96;21115;-70
2021/10/24 10:46:03;;;;;;;20.72;9.00;;;;;;;11.63;100.00;100697.23;1505278;91;21149;-68
2021/10/24 10:48:42;;;;;;;18.12;7.62;;;;;;;11.63;100.00;100689.09;1578118;91;21558;-69
2021/10/24 10:51:24;;;;;;;16.27;7.50;;;;;;;11.67;100.00;100690.49;1590341;90;21046;-70
2021/10/24 10:54:03;;;;;;;17.95;8.15;;;;;;;11.78;100.00;100686.12;1580924;90;21118;-69
2021/10/24 10:56:34;;;;;;;17.98;7.85;;;;;;;11.95;100.00;100684.86;1601608;89;21101;-68
2021/10/24 10:59:03;;;;;;;16.15;7.87;;;;;;;12.11;100.00;100685.41;1608913;88;21071;-69
2021/10/24 11:01:39;;;;;;;17.70;8.68;;;;;;;12.30;100.00;100684.28;1590001;89;21106;-68
2021/10/24 11:04:15;;;;;;;15.43;7.12;;;;;;;12.47;100.00;100686.52;1539632;93;21081;-68
2021/10/24 11:06:49;;;;;;;21.07;9.43;;;;;;;12.51;100.00;100687.87;1513498;93;21154;-68
2021/10/24 11:09:42;;;;;;;22.60;9.63;;;;;;;12.34;100.00;100685.63;1508775;94;21136;-68
2021/10/24 11:12:31;;;;;;;23.42;10.72;;;;;;;12.02;100.00;100694.02;1515833;95;21577;-70
2021/10/24 11:15:14;;;;;;;21.57;10.98;;;;;;;11.63;100.00;100697.73;1481961;97;21125;-71
2021/10/24 11:17:47;;;;;;;19.92;9.13;;;;;;;11.27;100.00;100707.36;1478993;95;21142;-71
2021/10/24 11:20:24;;;;;;;18.40;8.63;;;;;;;11.04;100.00;100707.87;1432791;100;21582;-71
2021/10/24 11:23:00;;;;;;;17.02;8.58;;;;;;;10.88;100.00;100714.01;1416003;100;21180;-69
2021/10/24 11:25:34;;;;;;;22.00;9.25;;;;;;;10.77;100.00;100717.81;1492728;95;21165;-69
2021/10/24 11:28:12;;;;;;;;;;;;;;;10.63;100.00;100717.85;1495691;96;21097;-71